Latest Weather Observations for Rolleston Airport

IDQ60801

Issued at 11:02 am EST Tuesday 26 May 2015 (issued every 30 minutes, with the page automatically refreshed every 10 minutes)

About weather observations | Map of weather stations | Latest weather observations for QLD | Other Formats
Station Details ID: 035129 Name: ROLLESTON AIRPORT Lat: -24.46 Lon: 148.63 Height: 219.45 m
Data from the previous 72 hours. | See also: Recent months at Rolleston Airport
Date/Time
EST
Temp
°C
App
Temp
°C
Dew
Point
Rel
Hum
%
Delta-T
°C
Wind Press
QNH
hPa
Press
MSL
hPa
Rain
since 9 am
mm
Dir
 
Spd
km/h
Gust
km/h
Spd
kts
Gust
kts
26/11:00am 22.9 21.3 8.6 40 7.6 ESE 7 17 4 9 1026.9 1026.3 0.0
26/10:30am 22.0 19.3 8.9 43 7.0 ESE 13 19 7 10 1026.9 1026.3 0.0
26/10:00am 21.2 18.2 9.1 46 6.5 ESE 15 22 8 12 1027.4 1026.9 0.0
26/09:30am 20.3 18.0 10.4 53 5.4 SE 13 20 7 11 1028.0 1027.5 0.0
26/09:00am 18.9 17.7 11.5 62 4.1 S 9 15 5 8 1028.2 1027.7 0.0
26/08:30am 16.4 14.6 10.9 70 3.0 SSE 11 15 6 8 1027.9 1027.4 0.0
26/08:00am 14.7 13.4 11.3 80 1.8 SE 9 11 5 6 1027.6 1027.1 0.0
26/07:30am 13.1 12.0 10.6 85 1.3 SSE 7 9 4 5 1027.4 1026.9 0.0
26/07:00am 12.9 12.0 10.6 86 1.2 SSE 6 7 3 4 1027.0 1026.4 0.0
26/06:30am 13.1 12.3 11.0 87 1.1 SE 6 7 3 4 1026.9 1026.3 0.0
26/06:00am 12.7 11.6 10.8 88 1.0 SE 7 7 4 4 1026.6 1026.0 0.0
26/05:30am 13.0 11.9 10.5 85 1.3 SSE 7 9 4 5 1026.7 1026.1 0.0
26/05:00am 12.7 12.0 10.1 84 1.3 SSE 4 6 2 3 1026.8 1026.2 0.0
26/04:30am 13.0 12.4 10.5 85 1.3 S 4 6 2 3 1026.5 1025.9 0.0
26/04:00am 13.0 12.2 10.9 87 1.1 S 6 6 3 3 1026.9 1026.3 0.0
26/03:30am 12.9 12.4 10.8 87 1.1 S 4 4 2 2 1027.2 1026.6 0.0
26/03:00am 12.9 12.3 10.4 85 1.3 SSE 4 6 2 3 1027.3 1026.8 0.0
26/02:30am 13.2 12.4 9.8 80 1.8 SSE 4 6 2 3 1026.8 1026.2 0.0
26/02:00am 15.4 14.7 11.4 77 2.2 E 6 7 3 4 1027.2 1026.6 0.0
26/01:30am 14.9 13.8 10.7 76 2.2 SE 7 9 4 5 1027.4 1026.9 0.0
26/01:00am 16.9 15.8 11.8 72 2.8 ESE 9 15 5 8 1027.4 1026.9 0.0
26/12:30am 16.5 15.2 11.4 72 2.8 ESE 9 13 5 7 1027.2 1026.6 0.0
26/12:00am 15.6 14.2 10.8 73 2.6 SE 9 11 5 6 1026.9 1026.3 0.0
 
Date/Time
EST
Temp
°C
App
Temp
°C
Dew
Point
Rel
Hum
%
Delta-T
°C
Wind Press
QNH
hPa
Press
MSL
hPa
Rain
since 9 am
mm
Dir
 
Spd
km/h
Gust
km/h
Spd
kts
Gust
kts
25/11:30pm 15.5 14.4 10.5 72 2.7 SSE 7 9 4 5 1027.3 1026.8 0.0
25/11:00pm 15.3 13.8 10.7 74 2.4 SE 9 11 5 6 1027.0 1026.4 0.0
25/10:30pm 15.0 13.8 10.2 73 2.5 SSE 7 7 4 4 1027.4 1026.9 0.0
25/10:00pm 15.1 13.5 10.3 73 2.5 SE 9 9 5 5 1027.1 1026.5 0.0
25/09:30pm 15.4 14.2 10.4 72 2.7 SSE 7 9 4 5 1027.2 1026.6 0.0
25/09:00pm 15.6 14.4 9.7 68 3.1 SSE 6 6 3 3 1027.1 1026.5 0.0
25/08:30pm 17.5 16.5 10.9 65 3.6 ESE 7 9 4 5 1027.0 1026.4 0.0
25/08:00pm 16.7 15.6 10.5 67 3.3 SE 7 9 4 5 1027.1 1026.5 0.0
25/07:30pm 19.4 19.0 11.2 59 4.5 E 4 6 2 3 1026.7 1026.1 0.0
25/07:00pm 19.9 19.4 10.9 56 4.9 E 4 6 2 3 1026.7 1026.1 0.0
25/06:30pm 20.7 19.8 10.8 53 5.5 E 6 7 3 4 1026.2 1025.6 0.0
25/06:00pm 21.4 20.6 11.1 52 5.7 E 6 11 3 6 1025.7 1025.2 0.0
25/05:30pm 21.9 20.5 11.0 50 6.1 E 9 11 5 6 1025.6 1025.1 0.0
25/05:00pm 22.3 20.2 11.1 49 6.2 E 13 17 7 9 1025.4 1024.9 0.0
25/04:30pm 22.5 20.3 10.9 48 6.5 ESE 13 20 7 11 1025.4 1024.9 0.0
25/04:00pm 22.8 20.3 10.9 47 6.6 ENE 15 20 8 11 1025.3 1024.8 0.0
25/03:30pm 22.7 20.6 11.1 48 6.5 ENE 13 19 7 10 1025.5 1025.0 0.0
25/03:00pm 23.0 20.9 11.1 47 6.7 E 13 19 7 10 1025.3 1024.8 0.0
25/02:30pm 23.0 20.5 11.1 47 6.7 E 15 22 8 12 1025.3 1024.8 0.0
25/02:00pm 23.2 21.0 10.9 46 6.9 SE 13 19 7 10 1025.6 1025.1 0.0
25/01:30pm 22.9 21.2 11.3 48 6.5 E 11 22 6 12 1025.9 1025.4 0.0
25/01:00pm 22.8 20.8 11.5 49 6.4 E 13 17 7 9 1026.6 1026.0 0.0
25/12:30pm 22.4 20.3 11.2 49 6.3 E 13 22 7 12 1027.3 1026.8 0.0
25/12:00pm 22.1 19.6 11.2 50 6.1 E 15 28 8 15 1027.8 1027.3 0.0
25/11:30am 21.7 19.2 11.1 51 5.9 E 15 24 8 13 1028.4 1027.9 0.0
25/11:00am 22.0 18.8 11.4 51 5.9 ESE 19 30 10 16 1028.8 1028.3 0.0
25/10:30am 21.7 18.9 11.4 52 5.8 ESE 17 26 9 14 1029.1 1028.6 0.0
25/10:00am 20.8 17.5 10.9 53 5.4 E 19 24 10 13 1029.5 1029.0 0.0
25/09:30am 20.5 17.3 11.2 55 5.2 ESE 19 26 10 14 1029.2 1028.7 0.0
25/09:00am 18.7 17.4 11.3 62 4.1 SE 9 20 5 11 1029.6 1029.1 0.0
25/08:30am 15.4 14.0 9.7 69 3.0 SSE 7 11 4 6 1029.4 1028.9 0.0
25/08:00am 13.0 12.1 9.1 77 2.0 SSE 4 7 2 4 1029.3 1028.8 0.0
25/07:30am 11.4 9.9 8.6 83 1.4 SSE 6 6 3 3 1029.0 1028.5 0.0
25/07:00am 9.9 8.3 7.8 87 1.0 SSW 6 7 3 4 1029.1 1028.6 0.0
25/06:30am 9.6 7.6 7.2 85 1.1 SSE 7 7 4 4 1028.3 1027.8 0.0
25/06:00am 9.4 6.7 7.3 87 1.0 SE 11 13 6 7 1027.9 1027.4 0.0
25/05:30am 9.9 8.1 7.8 87 1.0 SE 7 13 4 7 1027.7 1027.2 0.0
25/05:00am 9.9 8.0 7.7 86 1.1 S 7 9 4 5 1027.6 1027.1 0.0
25/04:30am 11.2 9.3 7.7 79 1.7 S 7 9 4 5 1026.9 1026.3 0.0
25/04:00am 11.1 9.1 8.5 84 1.3 SE 9 13 5 7 1026.7 1026.1 0.0
25/03:30am 10.3 8.2 6.8 79 1.7 SSE 7 9 4 5 1027.4 1026.9 0.0
25/03:00am 10.4 8.9 6.7 78 1.7 S 4 6 2 3 1027.5 1027.0 0.0
25/02:30am 10.4 8.4 6.2 75 2.0 SSE 6 7 3 4 1027.4 1026.9 0.0
25/02:00am 11.3 8.7 6.0 70 2.5 SSE 9 13 5 7 1027.5 1027.0 0.0
25/01:30am 11.8 9.3 6.7 71 2.5 SSE 9 13 5 7 1027.4 1026.9 0.0
25/01:00am 11.5 9.4 6.0 69 2.6 SSE 6 7 3 4 1027.6 1027.1 0.0
25/12:30am 11.6 9.5 5.9 68 2.7 SSE 6 6 3 3 1027.6 1027.1 0.0
25/12:00am 13.4 11.3 6.5 63 3.3 SE 7 9 4 5 1027.7 1027.2 0.0
 
Date/Time
EST
Temp
°C
App
Temp
°C
Dew
Point
Rel
Hum
%
Delta-T
°C
Wind Press
QNH
hPa
Press
MSL
hPa
Rain
since 9 am
mm
Dir
 
Spd
km/h
Gust
km/h
Spd
kts
Gust
kts
24/11:30pm 11.9 9.6 5.5 65 3.0 SE 7 11 4 6 1027.8 1027.3 0.0
24/11:00pm 13.1 10.8 5.8 61 3.5 SSE 7 9 4 5 1028.0 1027.5 0.0
24/10:30pm 12.8 10.1 5.5 61 3.4 SSE 9 11 5 6 1027.4 1026.9 0.0
24/10:00pm 13.7 10.9 5.1 56 4.0 SSE 9 9 5 5 1027.2 1026.6 0.0
24/09:30pm 14.0 11.2 5.1 55 4.2 SE 9 11 5 6 1027.0 1026.4 0.0
24/09:00pm 14.7 12.0 5.8 55 4.3 SE 9 11 5 6 1026.8 1026.2 0.0
24/08:30pm 16.6 13.7 4.9 46 5.6 SE 9 13 5 7 1026.9 1026.3 0.0
24/08:00pm 18.7 15.2 5.5 42 6.5 ESE 13 17 7 9 1026.7 1026.1 0.0
24/07:30pm 18.4 15.5 6.3 45 6.1 ESE 11 15 6 8 1026.4 1025.8 0.0
24/07:00pm 17.7 14.8 6.3 47 5.6 ESE 11 11 6 6 1026.0 1025.5 0.0
24/06:30pm 19.8 17.1 5.5 39 7.1 ESE 9 13 5 7 1025.8 1025.3 0.0
24/06:00pm 20.4 17.6 5.2 37 7.5 E 9 13 5 7 1025.4 1024.9 0.0
24/05:30pm 21.9 18.4 5.3 34 8.3 E 13 17 7 9 1025.2 1024.7 0.0
24/05:00pm 23.1 19.1 5.1 31 9.0 ESE 15 22 8 12 1024.8 1024.3 0.0
24/04:30pm 23.9 19.7 5.8 31 9.3 ESE 17 22 9 12 1024.5 1024.0 0.0
24/04:00pm 24.8 21.1 6.1 30 9.7 ESE 15 22 8 12 1024.4 1023.9 0.0
24/03:30pm 24.6 20.9 6.4 31 9.5 ESE 15 20 8 11 1024.2 1023.7 0.0
24/03:00pm 24.6 20.2 6.4 31 9.4 ESE 19 24 10 13 1024.2 1023.7 0.0
24/02:30pm 24.4 19.9 6.2 31 9.4 ESE 19 28 10 15 1024.2 1023.7 0.0
24/02:00pm 24.6 20.4 5.9 30 9.6 E 17 28 9 15 1024.3 1023.8 0.0
24/01:30pm 24.5 20.2 5.3 29 9.8 E 17 28 9 15 1024.3 1023.8 0.0
24/01:00pm 24.0 20.5 7.2 34 8.8 ESE 15 24 8 13 1024.6 1024.1 0.0
24/12:30pm 23.8 19.2 6.6 33 9.0 ESE 20 30 11 16 1025.1 1024.6 0.0
24/12:00pm 23.0 18.6 7.5 37 8.1 ESE 20 30 11 16 1025.9 1025.4 0.0
24/11:30am 22.1 17.5 8.2 41 7.4 E 22 35 12 19 1026.4 1025.8 0.0
24/11:00am 21.3 16.8 8.6 44 6.7 ESE 22 35 12 19 1026.8 1026.2 0.0
24/10:30am 20.7 15.5 9.0 47 6.3 ESE 26 35 14 19 1027.2 1026.6 0.0
24/10:00am 20.1 15.3 8.8 48 6.0 ESE 24 33 13 18 1027.4 1026.9 0.0
24/09:30am 17.9 14.8 7.3 50 5.4 SE 13 22 7 12 1027.7 1027.2 0.0
24/09:00am 17.0 13.9 7.1 52 5.0 SSE 13 17 7 9 1027.5 1027.0 0.0
24/08:30am 14.8 12.5 7.6 62 3.6 S 9 13 5 7 1027.1 1026.5 0.0
24/08:00am 11.7 9.2 6.6 71 2.4 SSE 9 13 5 7 1026.9 1026.3 0.0
24/07:30am 9.2 7.1 6.5 83 1.3 SSE 7 9 4 5 1026.7 1026.1 0.0
24/07:00am 7.5 5.3 6.0 90 0.7 SSE 7 9 4 5 1026.4 1025.8 0.0
24/06:30am 6.6 4.1 4.9 89 0.8 SSE 7 9 4 5 1026.0 1025.5 0.0
24/06:00am 7.5 5.4 5.6 88 0.9 SSE 6 7 3 4 1025.7 1025.2 0.0
24/05:30am 7.6 4.9 5.6 87 0.9 SSE 9 11 5 6 1025.3 1024.8 0.0
24/05:00am 7.8 5.5 5.9 88 0.9 SSE 7 9 4 5 1025.0 1024.5 0.0
24/04:30am 8.1 5.5 5.9 86 1.0 SSE 9 9 5 5 1024.7 1024.2 0.0
24/04:00am 8.5 5.9 6.1 85 1.1 SSE 9 9 5 5 1024.6 1024.1 0.0
24/03:30am 8.3 5.6 5.8 84 1.1 SSE 9 9 5 5 1024.4 1023.9 0.0
24/03:00am 8.8 6.1 5.7 81 1.4 SSE 9 9 5 5 1024.7 1024.2 0.0
24/02:30am 9.2 6.6 6.1 81 1.4 SE 9 11 5 6 1024.8 1024.3 0.0
24/02:00am 9.7 7.1 5.9 77 1.8 SE 9 11 5 6 1024.8 1024.3 0.0
24/01:30am 9.9 7.2 5.7 75 1.9 SSE 9 11 5 6 1024.6 1024.1 0.0
24/01:00am 9.8 6.8 6.0 77 1.8 SE 11 13 6 7 1024.3 1023.8 0.0
24/12:30am 9.8 7.1 5.4 74 2.0 SE 9 11 5 6 1024.2 1023.7 0.0
24/12:00am 10.1 7.3 5.1 71 2.3 SSE 9 11 5 6 1024.3 1023.8 0.0
 
Date/Time
EST
Temp
°C
App
Temp
°C
Dew
Point
Rel
Hum
%
Delta-T
°C
Wind Press
QNH
hPa
Press
MSL
hPa
Rain
since 9 am
mm
Dir
 
Spd
km/h
Gust
km/h
Spd
kts
Gust
kts
23/11:30pm 10.5 7.7 5.1 69 2.5 SE 9 9 5 5 1024.4 1023.9 0.0
23/11:00pm 11.0 8.1 4.9 66 2.8 SSE 9 9 5 5 1024.5 1024.0 0.0
23/10:30pm 11.2 8.3 4.9 65 2.9 SSE 9 9 5 5 1024.2 1023.7 0.0
23/10:00pm 11.2 8.7 4.9 65 2.9 SSE 7 9 4 5 1024.3 1023.8 0.0
23/09:30pm 12.2 9.9 4.7 60 3.5 S 6 7 3 4 1024.2 1023.7 0.0
23/09:00pm 13.5 11.2 4.9 56 4.0 SSE 6 7 3 4 1024.2 1023.7 0.0
23/08:30pm 14.9 12.6 5.7 54 4.4 SSE 7 9 4 5 1023.9 1023.4 0.0
23/08:00pm 14.5 12.1 5.3 54 4.4 SE 7 9 4 5 1023.8 1023.3 0.0
23/07:30pm 16.0 12.9 5.6 50 5.0 SE 11 11 6 6 1023.5 1023.0 0.0
23/07:00pm 17.4 14.0 5.7 46 5.7 ESE 13 15 7 8 1023.1 1022.5 0.0
23/06:30pm 18.1 15.1 6.0 45 6.0 ESE 11 15 6 8 1022.9 1022.3 0.0
23/06:00pm 19.0 15.9 5.5 41 6.6 ESE 11 15 6 8 1022.6 1022.0 0.0
23/05:30pm 20.1 17.0 5.4 38 7.3 ESE 11 15 6 8 1022.2 1021.6 0.0
23/05:00pm 21.9 17.7 5.8 35 8.1 SE 17 22 9 12 1021.8 1021.2 0.0
23/04:30pm 22.8 18.5 5.3 32 8.8 ESE 17 22 9 12 1021.6 1021.0 0.0
23/04:00pm 23.1 19.3 6.0 33 8.7 SE 15 24 8 13 1021.5 1020.9 0.0
23/03:30pm 23.6 19.8 6.0 32 9.1 SE 15 20 8 11 1021.3 1020.8 0.0
23/03:00pm 23.9 19.9 6.7 33 9.0 SE 17 28 9 15 1021.2 1020.7 0.0
23/02:30pm 23.3 18.9 6.6 34 8.7 SE 19 30 10 16 1021.3 1020.8 0.0
23/02:00pm 23.3 18.4 7.0 35 8.5 SE 22 30 12 16 1021.5 1020.9 0.0
23/01:30pm 23.1 18.7 6.4 34 8.6 SE 19 30 10 16 1021.8 1021.2 0.0
23/01:00pm 22.7 17.8 6.9 36 8.2 SE 22 33 12 18 1022.1 1021.5 0.0
23/12:30pm 22.2 16.5 6.8 37 8.0 SE 26 37 14 20 1022.7 1022.1 0.0
23/12:00pm 21.8 17.2 6.5 37 7.8 SE 20 39 11 21 1023.2 1022.6 0.0
23/11:30am 21.3 16.1 7.2 40 7.3 SE 24 39 13 21 1023.4 1022.9 0.0

Other Formats:

Comma delimited format used in spreadsheet applications
http://www.bom.gov.au/fwo/IDQ60801/IDQ60801.94396.axf

JavaScript Object Notation format (JSON) in row-major order
http://www.bom.gov.au/fwo/IDQ60801/IDQ60801.94396.json